Time;durP1;ratioP1;P1;durP2;ratioP2;P2;SDS_P1;SDS_P2;PMS_P1;PMS_P2;Temp;Humidity;BMP_temperature;BMP_pressure;BME280_temperature;BME280_humidity;BME280_pressure;Samples;Min_cycle;Max_cycle;Signal;HPM_P1;HPM_P2
2022/07/10 00:01:12;;;;;;;;;;;;;;;15.99;54.44;102160.56;5002137;28;20519;-77
2022/07/10 00:03:37;;;;;;;;;;;;;;;15.80;54.79;102174.03;5000122;28;19918;-77
2022/07/10 00:06:04;;;;;;;;;;;;;;;15.95;54.31;102160.63;5003935;28;19926;-77
2022/07/10 00:08:29;;;;;;;;;;;;;;;16.03;53.38;102156.97;5011683;28;19964;-76
2022/07/10 00:10:54;;;;;;;;;;;;;;;16.00;54.49;102157.03;5000603;28;19960;-79
2022/07/10 00:13:20;;;;;;;;;;;;;;;16.00;55.14;102159.66;5005929;28;20298;-78
2022/07/10 00:15:45;;;;;;;;;;;;;;;15.92;54.71;102163.31;5000036;28;20297;-78
2022/07/10 00:18:10;;;;;;;;;;;;;;;16.13;54.22;102153.25;5000778;28;19917;-77
2022/07/10 00:20:36;;;;;;;;;;;;;;;16.09;55.02;102156.81;5007083;28;19929;-77
2022/07/10 00:23:02;;;;;;;;;;;;;;;16.10;53.95;102156.81;5001800;28;20015;-77
2022/07/10 00:25:28;;;;;;;;;;;;;;;16.17;54.06;102158.38;5003571;28;19925;-76
2022/07/10 00:27:53;;;;;;;;;;;;;;;16.08;54.07;102161.19;5001395;28;19991;-78
2022/07/10 00:30:18;;;;;;;;;;;;;;;15.84;54.68;102162.59;5000104;28;20009;-78
2022/07/10 00:32:43;;;;;;;;;;;;;;;16.08;54.27;102160.34;5003594;28;20047;-78
2022/07/10 00:35:09;;;;;;;;;;;;;;;16.02;53.86;102153.47;5008646;28;20296;-78
2022/07/10 00:37:36;;;;;;;;;;;;;;;16.01;55.85;102162.25;5009950;28;19932;-78
2022/07/10 00:40:02;;;;;;;;;;;;;;;16.10;54.21;102161.19;5003686;28;19922;-78
2022/07/10 00:42:27;;;;;;;;;;;;;;;15.81;55.03;102160.03;5014304;28;20679;-78
2022/07/10 00:44:53;;;;;;;;;;;;;;;16.01;54.92;102158.75;4987429;28;20036;-77
2022/07/10 00:47:19;;;;;;;;;;;;;;;16.04;54.68;102161.31;5012723;28;20020;-77
2022/07/10 00:49:45;;;;;;;;;;;;;;;15.97;55.30;102155.34;5006014;28;19925;-76
2022/07/10 00:52:11;;;;;;;;;;;;;;;15.76;55.96;102148.78;5004382;28;19921;-76
2022/07/10 00:54:38;;;;;;;;;;;;;;;15.81;55.80;102149.53;5007296;28;19922;-76
2022/07/10 00:57:05;;;;;;;;;;;;;;;15.86;55.55;102142.47;5009161;28;19922;-77
2022/07/10 00:59:30;;;;;;;;;;;;;;;16.00;55.19;102150.03;5008171;28;20004;-77
2022/07/10 01:01:56;;;;;;;;;;;;;;;15.78;55.55;102148.75;5009097;28;20389;-77
2022/07/10 01:04:21;;;;;;;;;;;;;;;15.82;55.98;102153.91;5010676;28;20032;-76
2022/07/10 01:06:47;;;;;;;;;;;;;;;15.94;55.08;102143.16;5008513;28;19930;-78
2022/07/10 01:09:12;;;;;;;;;;;;;;;15.74;56.06;102149.69;5011253;28;19921;-78
2022/07/10 01:11:38;;;;;;;;;;;;;;;15.86;55.34;102149.47;5012522;28;19924;-77
2022/07/10 01:14:03;;;;;;;;;;;;;;;15.74;55.97;102145.34;5009293;28;19921;-76
2022/07/10 01:16:29;;;;;;;;;;;;;;;15.65;55.58;102142.88;5007733;28;19925;-76
2022/07/10 01:18:55;;;;;;;;;;;;;;;15.65;56.80;102148.13;5005243;28;19921;-76
2022/07/10 01:21:27;;;;;;;;;;;;;;;15.82;56.77;102147.78;5002038;28;20055;-76
2022/07/10 01:23:52;;;;;;;;;;;;;;;15.79;57.62;102148.72;5002683;28;20388;-76
2022/07/10 01:26:18;;;;;;;;;;;;;;;15.81;57.14;102149.53;5009290;28;19948;-76
2022/07/10 01:28:43;;;;;;;;;;;;;;;15.71;57.32;102142.75;5007172;28;20356;-76
2022/07/10 01:31:08;;;;;;;;;;;;;;;15.69;57.84;102141.91;5010373;28;19956;-79
2022/07/10 01:33:34;;;;;;;;;;;;;;;15.79;57.73;102140.88;5011272;28;20293;-79
2022/07/10 01:35:59;;;;;;;;;;;;;;;15.62;57.71;102132.47;5009476;28;20392;-79
2022/07/10 01:38:24;;;;;;;;;;;;;;;15.51;58.89;102134.41;5004658;28;20010;-79
2022/07/10 01:40:50;;;;;;;;;;;;;;;15.60;58.28;102130.78;5009080;28;20299;-77
2022/07/10 01:43:15;;;;;;;;;;;;;;;15.69;57.87;102133.22;5006555;28;20103;-77
2022/07/10 01:45:40;;;;;;;;;;;;;;;15.65;57.66;102127.16;5008894;28;19921;-77
2022/07/10 01:48:06;;;;;;;;;;;;;;;15.58;57.87;102122.94;5007011;28;19932;-77
2022/07/10 01:50:31;;;;;;;;;;;;;;;15.62;57.55;102123.72;5008422;28;19917;-77
2022/07/10 01:52:57;;;;;;;;;;;;;;;15.60;57.72;102122.91;5012486;28;20000;-77
2022/07/10 01:55:22;;;;;;;;;;;;;;;15.61;57.31;102124.63;5005301;28;19925;-78
2022/07/10 01:57:48;;;;;;;;;;;;;;;15.63;57.67;102113.22;5010722;28;19916;-78
2022/07/10 02:00:13;;;;;;;;;;;;;;;15.60;57.50;102126.38;5011314;28;19984;-76
2022/07/10 02:02:38;;;;;;;;;;;;;;;15.61;57.56;102117.63;5006702;28;19984;-79
2022/07/10 02:05:04;;;;;;;;;;;;;;;15.58;58.56;102120.31;5011584;28;19926;-78
2022/07/10 02:07:29;;;;;;;;;;;;;;;15.62;58.00;102116.75;4998104;28;19929;-77
2022/07/10 02:09:55;;;;;;;;;;;;;;;15.55;57.61;102116.88;5004626;28;19955;-78
2022/07/10 02:12:20;;;;;;;;;;;;;;;15.60;57.63;102121.13;5003795;28;19921;-78
2022/07/10 02:14:45;;;;;;;;;;;;;;;15.43;58.65;102118.00;5005042;28;19929;-78
2022/07/10 02:17:11;;;;;;;;;;;;;;;15.55;58.28;102122.13;5002595;28;20003;-78
2022/07/10 02:19:36;;;;;;;;;;;;;;;15.55;58.71;102123.00;5003759;28;19976;-77
2022/07/10 02:22:02;;;;;;;;;;;;;;;15.48;59.42;102117.91;5003768;28;20328;-77
2022/07/10 02:24:27;;;;;;;;;;;;;;;15.41;59.82;102109.31;5006519;28;19924;-77
2022/07/10 02:26:54;;;;;;;;;;;;;;;15.36;58.94;102108.56;5006285;28;19929;-77
2022/07/10 02:29:20;;;;;;;;;;;;;;;15.37;58.85;102108.50;5003185;28;19925;-77
2022/07/10 02:31:45;;;;;;;;;;;;;;;15.47;59.43;102113.56;5002208;28;20471;-77
2022/07/10 02:34:11;;;;;;;;;;;;;;;15.58;58.95;102116.81;5003340;28;19922;-77
2022/07/10 02:36:38;;;;;;;;;;;;;;;15.55;59.54;102112.50;5004560;28;19925;-77
2022/07/10 02:39:04;;;;;;;;;;;;;;;15.58;58.69;102109.84;5004354;28;19918;-77
2022/07/10 02:41:29;;;;;;;;;;;;;;;15.27;59.54;102112.19;5009041;28;19968;-76
2022/07/10 02:43:55;;;;;;;;;;;;;;;15.48;58.45;102110.06;5006944;28;19921;-76
2022/07/10 02:46:20;;;;;;;;;;;;;;;15.39;58.96;102108.50;5005838;28;19933;-76
2022/07/10 02:48:45;;;;;;;;;;;;;;;15.48;58.26;102105.69;5009632;28;19921;-79
2022/07/10 02:51:10;;;;;;;;;;;;;;;15.35;59.08;102105.06;5004671;28;19928;-76
2022/07/10 02:53:36;;;;;;;;;;;;;;;15.57;58.52;102102.03;5003382;28;20487;-77
2022/07/10 02:56:01;;;;;;;;;;;;;;;15.46;58.32;102099.59;5009780;28;19925;-79
2022/07/10 02:58:26;;;;;;;;;;;;;;;15.49;58.79;102102.16;5008159;28;19945;-79
2022/07/10 03:00:52;;;;;;;;;;;;;;;15.63;59.12;102102.72;5012347;28;19925;-77
2022/07/10 03:03:18;;;;;;;;;;;;;;;15.48;59.18;102097.84;5005976;28;20016;-77
2022/07/10 03:05:46;;;;;;;;;;;;;;;15.57;58.83;102099.41;5005427;28;20011;-76
2022/07/10 03:08:11;;;;;;;;;;;;;;;15.53;59.23;102103.84;5003472;28;19976;-77
2022/07/10 03:10:37;;;;;;;;;;;;;;;15.48;58.47;102099.59;5002038;28;19973;-79
2022/07/10 03:13:02;;;;;;;;;;;;;;;15.55;58.93;102098.53;4993938;28;20012;-77
2022/07/10 03:15:28;;;;;;;;;;;;;;;15.56;59.04;102105.53;5005651;28;19926;-77
2022/07/10 03:17:53;;;;;;;;;;;;;;;15.53;58.78;102113.44;5016526;28;20794;-80
2022/07/10 03:20:19;;;;;;;;;;;;;;;15.31;59.34;102113.00;4995258;28;19926;-79
2022/07/10 03:22:44;;;;;;;;;;;;;;;15.50;59.53;102113.50;4994303;28;19926;-76
2022/07/10 03:25:10;;;;;;;;;;;;;;;15.55;58.72;102123.00;5002700;28;19922;-77
2022/07/10 03:27:35;;;;;;;;;;;;;;;15.38;58.77;102115.47;5003792;28;20380;-77
2022/07/10 03:30:00;;;;;;;;;;;;;;;15.12;59.43;102117.72;5001275;28;20435;-77
2022/07/10 03:32:26;;;;;;;;;;;;;;;15.37;58.62;102113.75;5001550;28;20308;-77
2022/07/10 03:34:51;;;;;;;;;;;;;;;15.27;59.29;102114.78;5001954;28;19980;-77
2022/07/10 03:37:16;;;;;;;;;;;;;;;15.33;59.25;102114.69;5006348;28;19917;-79
2022/07/10 03:39:42;;;;;;;;;;;;;;;15.30;59.20;102117.34;5004502;28;19929;-79
2022/07/10 03:42:07;;;;;;;;;;;;;;;15.40;58.95;102113.69;5005537;28;19928;-78
2022/07/10 03:44:32;;;;;;;;;;;;;;;15.47;58.29;102114.44;5003768;28;19960;-77
2022/07/10 03:46:58;;;;;;;;;;;;;;;15.48;58.83;102110.94;5003558;28;20308;-77
2022/07/10 03:49:23;;;;;;;;;;;;;;;15.34;58.79;102110.31;5003362;28;19938;-77
2022/07/10 03:51:48;;;;;;;;;;;;;;;15.52;58.32;102109.97;5003076;28;20004;-77
2022/07/10 03:54:14;;;;;;;;;;;;;;;15.42;59.16;102111.06;5003144;28;19925;-77
2022/07/10 03:59:23;;;;;;;;;;;;;;;15.31;58.00;102100.78;5003073;28;19932;-77
2022/07/10 04:01:49;;;;;;;;;;;;;;;15.43;57.86;102100.53;5003564;28;19925;-77
2022/07/10 04:04:14;;;;;;;;;;;;;;;15.48;58.53;102103.06;4997261;28;19921;-78
2022/07/10 04:06:39;;;;;;;;;;;;;;;15.27;58.49;102103.50;5001315;28;20036;-79
2022/07/10 04:09:05;;;;;;;;;;;;;;;15.29;58.74;102110.41;5004840;28;19969;-77
2022/07/10 04:11:30;;;;;;;;;;;;;;;15.42;58.04;102106.66;5002105;28;19931;-77
2022/07/10 04:13:56;;;;;;;;;;;;;;;15.38;58.78;102099.78;4994116;28;19947;-79
2022/07/10 04:16:21;;;;;;;;;;;;;;;15.45;57.91;102103.13;4980108;28;19948;-79
2022/07/10 04:18:46;;;;;;;;;;;;;;;15.43;57.71;102104.91;4981609;28;19926;-79
2022/07/10 04:21:12;;;;;;;;;;;;;;;15.48;58.09;102102.22;4986433;28;20024;-79
2022/07/10 04:23:37;;;;;;;;;;;;;;;15.42;58.44;102098.78;5004095;28;19925;-79
2022/07/10 04:26:02;;;;;;;;;;;;;;;15.60;57.66;102107.19;5003833;28;19933;-79
2022/07/10 04:28:27;;;;;;;;;;;;;;;15.58;58.51;102107.22;5002511;28;19932;-76
2022/07/10 04:30:53;;;;;;;;;;;;;;;15.53;58.05;102116.06;5002042;28;19929;-77
2022/07/10 04:33:18;;;;;;;;;;;;;;;15.59;58.58;102108.94;5003119;28;19930;-76
2022/07/10 04:35:43;;;;;;;;;;;;;;;15.53;58.70;102106.44;5002076;28;19930;-76
2022/07/10 04:38:09;;;;;;;;;;;;;;;15.48;58.55;102112.69;5000956;28;19936;-79
2022/07/10 04:40:34;;;;;;;;;;;;;;;15.47;58.67;102113.56;5002195;28;20499;-76
2022/07/10 04:43:00;;;;;;;;;;;;;;;15.56;58.89;102114.25;4999763;28;19925;-76
2022/07/10 04:45:25;;;;;;;;;;;;;;;15.46;59.59;102120.56;4986089;28;19996;-79
2022/07/10 04:47:50;;;;;;;;;;;;;;;15.58;58.58;102107.22;4982798;28;19980;-79
2022/07/10 04:50:16;;;;;;;;;;;;;;;15.52;58.01;102109.97;4994124;28;19929;-77
2022/07/10 04:52:41;;;;;;;;;;;;;;;15.57;58.80;102108.09;5004178;28;20676;-77
2022/07/10 04:55:07;;;;;;;;;;;;;;;15.42;57.86;102111.06;5003667;28;19925;-77
2022/07/10 04:57:32;;;;;;;;;;;;;;;15.38;58.63;102115.47;5003274;28;19918;-76
2022/07/10 04:59:57;;;;;;;;;;;;;;;15.42;58.29;102109.25;5003020;28;19918;-79
2022/07/10 05:02:23;;;;;;;;;;;;;;;15.47;58.72;102118.81;5001667;28;19926;-79
2022/07/10 05:04:48;;;;;;;;;;;;;;;15.26;59.02;102120.06;5003345;28;19960;-76
2022/07/10 05:07:14;;;;;;;;;;;;;;;15.42;58.53;102118.91;5002399;28;20021;-76
2022/07/10 05:09:39;;;;;;;;;;;;;;;15.40;58.22;102118.91;4998884;28;19926;-79
2022/07/10 05:12:05;;;;;;;;;;;;;;;15.40;58.06;102116.31;5005179;28;19937;-79
2022/07/10 05:14:31;;;;;;;;;;;;;;;15.33;58.28;102122.53;5005581;28;19929;-79
2022/07/10 05:16:56;;;;;;;;;;;;;;;15.47;58.05;102129.28;5005634;28;20547;-77
2022/07/10 05:19:21;;;;;;;;;;;;;;;15.44;58.37;102130.19;5004708;28;20364;-77
2022/07/10 05:21:47;;;;;;;;;;;;;;;15.42;57.46;102137.25;5002904;28;19957;-76
2022/07/10 05:24:12;;;;;;;;;;;;;;;15.43;57.85;102128.47;5007875;28;20503;-76
2022/07/10 05:26:37;;;;;;;;;;;;;;;15.56;56.96;102129.09;5004376;28;19930;-77
2022/07/10 05:29:03;;;;;;;;;;;;;;;15.48;58.01;102129.25;5007817;28;19922;-77
2022/07/10 05:31:28;;;;;;;;;;;;;;;15.55;57.10;102132.59;5004059;28;19929;-77
2022/07/10 05:33:54;;;;;;;;;;;;;;;15.38;58.49;102140.78;5006720;28;19925;-77
2022/07/10 05:36:19;;;;;;;;;;;;;;;15.58;57.49;102137.78;5004930;28;19925;-77
2022/07/10 05:38:44;;;;;;;;;;;;;;;15.50;57.17;102142.31;5004102;28;19929;-78
2022/07/10 05:41:10;;;;;;;;;;;;;;;15.63;57.16;102139.41;5006406;28;19929;-79
2022/07/10 05:43:35;;;;;;;;;;;;;;;15.42;58.21;102140.69;5010069;28;19941;-78
2022/07/10 05:46:00;;;;;;;;;;;;;;;15.42;57.76;102145.09;5013431;28;19968;-76
2022/07/10 05:48:26;;;;;;;;;;;;;;;15.50;57.41;102150.16;5007696;28;19933;-76
2022/07/10 05:50:51;;;;;;;;;;;;;;;15.60;57.62;102144.69;5008629;28;20064;-76
2022/07/10 05:53:19;;;;;;;;;;;;;;;15.47;58.39;102148.47;5004846;28;20371;-77
2022/07/10 05:55:45;;;;;;;;;;;;;;;15.49;59.01;102140.56;5008122;28;20381;-77
2022/07/10 05:58:12;;;;;;;;;;;;;;;15.56;58.46;102144.81;5007043;28;19968;-77
2022/07/10 06:00:37;;;;;;;;;;;;;;;15.32;59.10;102148.75;5008392;28;19982;-77
2022/07/10 06:03:02;;;;;;;;;;;;;;;15.47;58.53;102142.38;5007205;28;20549;-77
2022/07/10 06:05:28;;;;;;;;;;;;;;;15.59;58.30;102132.53;4990858;28;19980;-77
2022/07/10 06:07:53;;;;;;;;;;;;;;;15.34;59.11;102139.13;4997410;28;20125;-77
2022/07/10 06:10:18;;;;;;;;;;;;;;;15.58;57.88;102133.41;5003111;28;19922;-77
2022/07/10 06:12:43;;;;;;;;;;;;;;;15.67;57.88;102134.97;4991699;28;20284;-77
2022/07/10 06:15:09;;;;;;;;;;;;;;;15.51;57.41;102126.56;4987659;28;20456;-78
2022/07/10 06:17:34;;;;;;;;;;;;;;;15.55;57.21;102123.00;5007867;28;19918;-77
2022/07/10 06:20:00;;;;;;;;;;;;;;;15.51;56.62;102125.72;4998339;28;19925;-77
2022/07/10 06:22:31;;;;;;;;;;;;;;;15.66;55.81;102125.41;4986382;28;19926;-79
2022/07/10 06:25:00;;;;;;;;;;;;;;;15.52;56.29;102128.28;4982913;28;19930;-79
2022/07/10 06:27:26;;;;;;;;;;;;;;;15.59;55.23;102134.28;4984465;28;20576;-79
2022/07/10 06:29:51;;;;;;;;;;;;;;;15.56;54.96;102137.81;4996769;28;20036;-79
2022/07/10 06:32:16;;;;;;;;;;;;;;;15.61;54.79;102135.97;5005235;28;19929;-79
2022/07/10 06:34:42;;;;;;;;;;;;;;;15.47;55.60;102137.13;4999880;28;20440;-79
2022/07/10 06:37:07;;;;;;;;;;;;;;;15.57;54.46;102134.28;4986456;28;20376;-79
2022/07/10 06:39:34;;;;;;;;;;;;;;;15.48;55.65;102144.97;4985262;28;20424;-79
2022/07/10 06:42:00;;;;;;;;;;;;;;;15.59;55.26;102144.75;4988577;28;19917;-79
2022/07/10 06:44:25;;;;;;;;;;;;;;;15.75;54.76;102139.19;4987724;28;19928;-79
2022/07/10 06:49:35;;;;;;;;;;;;;;;15.83;54.00;102139.91;4986985;28;19957;-79
2022/07/10 06:52:00;;;;;;;;;;;;;;;15.66;54.43;102141.97;4985978;28;20516;-78
2022/07/10 06:54:26;;;;;;;;;;;;;;;15.68;54.07;102137.56;4987920;28;19976;-77
2022/07/10 06:56:54;;;;;;;;;;;;;;;15.60;53.88;102136.00;5005731;28;19972;-77
2022/07/10 06:59:20;;;;;;;;;;;;;;;15.92;53.63;102137.09;4998535;28;20336;-77
2022/07/10 07:01:45;;;;;;;;;;;;;;;15.80;53.16;102136.50;4986631;28;19929;-77
2022/07/10 07:04:10;;;;;;;;;;;;;;;15.89;52.96;102131.94;4988061;28;19921;-77
2022/07/10 07:06:36;;;;;;;;;;;;;;;15.80;53.79;102139.13;4987058;28;20004;-77
2022/07/10 07:09:01;;;;;;;;;;;;;;;15.67;54.35;102134.97;4987018;28;19965;-76
2022/07/10 07:11:26;;;;;;;;;;;;;;;15.76;52.98;102146.16;4987581;28;20083;-76
2022/07/10 07:13:52;;;;;;;;;;;;;;;15.73;53.99;102133.09;4987579;28;19930;-76
2022/07/10 07:16:19;;;;;;;;;;;;;;;15.92;54.16;102128.38;4979872;28;19934;-79
2022/07/10 07:18:52;;;;;;;;;;;;;;;16.04;53.32;102132.47;4986275;28;20020;-77
2022/07/10 07:24:01;;;;;;;;;;;;;;;15.92;52.88;102128.38;4986956;28;20171;-77
2022/07/10 07:26:26;;;;;;;;;;;;;;;15.93;52.25;102130.06;4989863;28;19933;-77
2022/07/10 07:28:51;;;;;;;;;;;;;;;15.87;52.89;102131.06;4984115;28;20400;-77
2022/07/10 07:31:18;;;;;;;;;;;;;;;15.98;53.58;102130.88;4990065;28;19922;-77
2022/07/10 07:33:43;;;;;;;;;;;;;;;16.05;51.80;102126.31;4988434;28;19921;-77
2022/07/10 07:36:09;;;;;;;;;;;;;;;15.95;51.54;102142.28;4990502;28;20056;-77
2022/07/10 07:38:34;;;;;;;;;;;;;;;15.88;51.49;102145.91;4988486;28;19999;-77
2022/07/10 07:41:00;;;;;;;;;;;;;;;15.77;52.57;102141.78;4982671;28;19933;-77
2022/07/10 07:43:26;;;;;;;;;;;;;;;15.78;52.57;102147.00;4988987;28;19929;-77
2022/07/10 07:45:51;;;;;;;;;;;;;;;15.83;53.46;102133.81;4985255;28;19929;-80
2022/07/10 07:48:16;;;;;;;;;;;;;;;15.90;53.98;102132.75;4984240;28;20424;-80
2022/07/10 07:50:42;;;;;;;;;;;;;;;16.07;55.33;102130.66;4986613;28;19983;-80
2022/07/10 07:53:07;;;;;;;;;;;;;;;15.90;55.11;102138.88;4986228;28;20301;-79
2022/07/10 07:55:33;;;;;;;;;;;;;;;15.97;53.99;102142.22;4986891;28;19927;-77
2022/07/10 07:57:59;;;;;;;;;;;;;;;15.95;53.19;102137.03;4987295;28;20378;-77
2022/07/10 08:00:25;;;;;;;;;;;;;;;16.00;54.19;102139.53;4988550;28;20005;-77
2022/07/10 08:02:51;;;;;;;;;;;;;;;15.93;54.67;102138.81;4979926;28;19926;-76
2022/07/10 08:05:17;;;;;;;;;;;;;;;15.99;54.83;102134.34;4986261;28;20458;-77
2022/07/10 08:07:43;;;;;;;;;;;;;;;15.99;55.14;102142.22;4980109;28;19934;-77
2022/07/10 08:10:10;;;;;;;;;;;;;;;16.12;54.32;102138.41;4986578;28;19928;-78
2022/07/10 08:12:36;;;;;;;;;;;;;;;15.94;55.38;102144.91;4989133;28;19925;-78
2022/07/10 08:15:01;;;;;;;;;;;;;;;16.08;55.20;102141.97;4983872;28;19981;-78
2022/07/10 08:17:27;;;;;;;;;;;;;;;16.16;55.17;102137.47;4979108;28;19937;-78
2022/07/10 08:19:52;;;;;;;;;;;;;;;16.22;54.67;102139.94;4984057;28;19965;-78
2022/07/10 08:22:18;;;;;;;;;;;;;;;16.07;55.59;102129.78;4985532;28;19925;-77
2022/07/10 08:24:43;;;;;;;;;;;;;;;16.21;54.98;102123.34;4986037;28;19930;-78
2022/07/10 08:27:08;;;;;;;;;;;;;;;16.18;55.54;102131.28;4984414;28;19926;-80
2022/07/10 08:29:34;;;;;;;;;;;;;;;16.10;54.91;102127.97;4983980;28;20347;-77
2022/07/10 08:31:59;;;;;;;;;;;;;;;16.23;55.09;102134.66;4982894;28;19977;-76
2022/07/10 08:34:27;;;;;;;;;;;;;;;16.22;54.63;102132.06;4984500;28;19980;-80
2022/07/10 08:36:52;;;;;;;;;;;;;;;16.19;54.93;102133.00;4985528;28;19926;-77
2022/07/10 08:39:20;;;;;;;;;;;;;;;16.20;54.52;102131.22;4980790;28;20393;-77
2022/07/10 08:41:48;;;;;;;;;;;;;;;16.33;54.93;102137.94;4981931;28;19926;-78
2022/07/10 08:44:14;;;;;;;;;;;;;;;16.18;55.22;102136.53;4978860;28;19922;-78
2022/07/10 08:46:39;;;;;;;;;;;;;;;16.18;56.63;102131.28;4982723;28;20276;-78
2022/07/10 08:49:08;;;;;;;;;;;;;;;16.27;55.88;102136.31;4982396;28;19932;-78
2022/07/10 08:51:52;;;;;;;;;;;;;;;16.27;55.84;102138.94;4989681;28;19929;-78
2022/07/10 08:54:18;;;;;;;;;;;;;;;16.23;55.66;102136.41;4991735;28;20627;-78
2022/07/10 08:56:44;;;;;;;;;;;;;;;16.21;56.18;102136.44;4981588;28;20325;-79
2022/07/10 08:59:12;;;;;;;;;;;;;;;16.29;56.37;102136.25;4992462;28;19925;-78
2022/07/10 09:01:37;;;;;;;;;;;;;;;16.11;57.10;102139.28;5008088;28;19928;-78
2022/07/10 09:04:03;;;;;;;;;;;;;;;16.31;56.24;102129.25;5006080;28;19922;-78
2022/07/10 09:06:28;;;;;;;;;;;;;;;16.30;56.70;102131.00;5005997;28;20396;-78
2022/07/10 09:08:58;;;;;;;;;;;;;;;16.46;56.15;102132.34;5006169;28;19929;-78
2022/07/10 09:11:25;;;;;;;;;;;;;;;16.45;56.51;102138.50;5006146;28;20035;-77
2022/07/10 09:13:51;;;;;;;;;;;;;;;16.42;56.22;102130.72;5006096;28;20471;-77
2022/07/10 09:16:27;;;;;;;;;;;;;;;16.37;56.65;102134.34;5020163;28;19936;-76
2022/07/10 09:18:53;;;;;;;;;;;;;;;16.32;56.16;102123.09;5006655;28;19925;-77
2022/07/10 09:21:19;;;;;;;;;;;;;;;16.47;56.42;102114.84;5006869;28;19925;-77
2022/07/10 09:23:45;;;;;;;;;;;;;;;16.41;56.20;102121.13;5005347;28;19937;-78
2022/07/10 09:26:10;;;;;;;;;;;;;;;16.37;55.98;102127.31;5002358;28;19930;-78
2022/07/10 09:28:36;;;;;;;;;;;;;;;16.47;55.80;102127.97;5008972;28;19930;-80
2022/07/10 09:31:01;;;;;;;;;;;;;;;16.28;57.20;102121.44;5003249;28;19926;-77
2022/07/10 09:33:30;;;;;;;;;;;;;;;16.36;56.46;102111.63;5016395;28;19974;-78
2022/07/10 09:36:05;;;;;;;;;;;;;;;16.46;55.87;102118.41;5009525;28;20000;-78
2022/07/10 09:38:39;;;;;;;;;;;;;;;16.34;56.48;102122.16;5001167;28;19957;-78
2022/07/10 09:41:21;;;;;;;;;;;;;;;16.39;56.41;102119.44;5009366;28;20427;-78
2022/07/10 09:43:53;;;;;;;;;;;;;;;16.51;55.69;102120.00;5004200;28;20342;-78
2022/07/10 09:46:25;;;;;;;;;;;;;;;16.40;56.31;102124.63;5007636;28;19925;-78
2022/07/10 09:49:20;;;;;;;;;;;;;;;16.41;57.01;102123.72;5007520;28;19933;-78
2022/07/10 09:51:46;;;;;;;;;;;;;;;16.53;56.10;102122.56;4999407;28;19964;-78
2022/07/10 09:54:11;;;;;;;;;;;;;;;16.54;55.44;102119.06;5002927;28;20345;-80
2022/07/10 09:56:43;;;;;;;;;;;;;;;16.65;55.50;102124.03;5007931;28;20395;-80
2022/07/10 09:59:13;;;;;;;;;;;;;;;16.50;56.30;102133.16;5006347;28;19925;-79
2022/07/10 10:01:42;;;;;;;;;;;;;;;16.51;56.47;102125.25;5007204;28;19983;-78
2022/07/10 10:04:08;;;;;;;;;;;;;;;16.56;56.42;102124.25;5000395;28;20384;-79
2022/07/10 10:06:36;;;;;;;;;;;;;;;16.67;55.94;102122.25;5007791;28;20071;-79
2022/07/10 10:09:06;;;;;;;;;;;;;;;16.62;56.27;102127.59;5014462;28;20008;-80
2022/07/10 10:11:41;;;;;;;;;;;;;;;16.65;55.30;102118.78;5011244;28;19989;-77
2022/07/10 10:14:07;;;;;;;;;;;;;;;16.61;55.67;102115.38;5009861;28;19928;-79
2022/07/10 10:16:33;;;;;;;;;;;;;;;16.66;56.26;102120.53;5008521;28;20012;-79
2022/07/10 10:21:43;;;;;;;;;;;;;;;16.72;56.12;102121.28;5006163;28;20575;-78
2022/07/10 10:24:08;;;;;;;;;;;;;;;16.64;55.84;102115.31;5003462;28;20019;-78
2022/07/10 10:26:34;;;;;;;;;;;;;;;16.48;56.44;102114.84;5009040;28;19925;-78
2022/07/10 10:29:00;;;;;;;;;;;;;;;16.70;56.44;102115.19;5002213;28;20067;-78
2022/07/10 10:31:29;;;;;;;;;;;;;;;16.60;56.10;102112.81;5006183;28;19927;-78
2022/07/10 10:33:55;;;;;;;;;;;;;;;16.62;56.09;102113.63;5007314;28;19921;-79
2022/07/10 10:36:33;;;;;;;;;;;;;;;16.59;56.09;102111.94;5009111;28;19929;-77
2022/07/10 10:39:03;;;;;;;;;;;;;;;16.65;56.41;102110.91;5007453;28;19944;-77
2022/07/10 10:41:37;;;;;;;;;;;;;;;16.60;56.77;102112.81;5008546;28;19933;-77
2022/07/10 10:44:16;;;;;;;;;;;;;;;16.67;56.51;102109.13;5024226;28;19964;-77
2022/07/10 10:46:50;;;;;;;;;;;;;;;16.60;57.28;102118.06;4998875;28;19992;-77
2022/07/10 10:49:16;;;;;;;;;;;;;;;16.58;57.22;102120.69;5003275;28;20408;-78
2022/07/10 10:51:58;;;;;;;;;;;;;;;16.58;57.14;102122.47;5011776;28;19921;-78
2022/07/10 10:54:23;;;;;;;;;;;;;;;16.53;58.23;102115.56;5008038;28;20387;-77
2022/07/10 10:57:07;;;;;;;;;;;;;;;16.60;57.93;102123.31;5008982;28;19925;-81
2022/07/10 10:59:52;;;;;;;;;;;;;;;16.59;58.05;102116.31;5006214;28;19926;-77
2022/07/10 11:02:22;;;;;;;;;;;;;;;16.43;58.61;102108.81;5008856;28;19925;-77
2022/07/10 11:04:48;;;;;;;;;;;;;;;16.45;58.56;102108.78;5012678;28;19932;-77
2022/07/10 11:07:34;;;;;;;;;;;;;;;16.53;58.44;102115.56;5006014;28;19929;-77
2022/07/10 11:10:17;;;;;;;;;;;;;;;16.48;60.45;102122.69;4999983;28;19925;-77
2022/07/10 11:12:59;;;;;;;;;;;;;;;16.45;61.19;102121.91;5000714;28;19921;-77
2022/07/10 11:15:26;;;;;;;;;;;;;;;16.42;60.97;102114.97;5004765;28;19925;-78
2022/07/10 11:17:52;;;;;;;;;;;;;;;16.46;61.21;102108.75;5007007;28;20451;-77
2022/07/10 11:20:17;;;;;;;;;;;;;;;16.34;60.96;102103.78;5004631;28;19930;-77
2022/07/10 11:22:42;;;;;;;;;;;;;;;16.49;60.40;102102.59;4998541;28;19921;-80
2022/07/10 11:25:17;;;;;;;;;;;;;;;16.61;60.17;102091.75;5005307;28;20599;-79
2022/07/10 11:27:45;;;;;;;;;;;;;;;16.66;59.78;102087.28;5003194;28;20016;-79
2022/07/10 11:30:11;;;;;;;;;;;;;;;16.73;60.09;102094.13;5005731;28;19925;-79
2022/07/10 11:32:37;;;;;;;;;;;;;;;16.66;59.42;102089.91;5000430;28;20388;-80
2022/07/10 11:35:05;;;;;;;;;;;;;;;16.73;60.09;102085.41;5001990;28;19968;-80
2022/07/10 11:37:31;;;;;;;;;;;;;;;16.76;59.05;102085.34;5002613;28;19968;-80
2022/07/10 11:40:10;;;;;;;;;;;;;;;16.56;59.63;102080.53;4999611;28;19921;-80
2022/07/10 11:42:54;;;;;;;;;;;;;;;16.60;60.20;102087.44;5000745;28;19917;-80
2022/07/10 11:45:30;;;;;;;;;;;;;;;16.56;59.91;102082.28;5003597;28;19980;-81
2022/07/10 11:47:56;;;;;;;;;;;;;;;16.61;60.20;102089.13;5011207;28;19934;-80
2022/07/10 11:50:22;;;;;;;;;;;;;;;16.58;59.36;102083.13;5007051;28;19956;-80
2022/07/10 11:52:47;;;;;;;;;;;;;;;16.50;60.39;102084.19;5007595;28;20385;-81
2022/07/10 11:55:16;;;;;;;;;;;;;;;16.57;59.47;102082.25;5010913;28;20400;-80
2022/07/10 11:57:41;;;;;;;;;;;;;;;16.46;59.74;102082.50;5003314;28;19974;-80
2022/07/10 12:00:07;;;;;;;;;;;;;;;16.53;60.43;102081.47;5002731;28;19931;-80
2022/07/10 12:02:32;;;;;;;;;;;;;;;16.59;60.42;102085.69;5005409;28;20020;-80
2022/07/10 12:04:58;;;;;;;;;;;;;;;16.61;59.48;102083.06;5004517;28;19931;-80
2022/07/10 12:07:23;;;;;;;;;;;;;;;16.63;60.58;102081.25;5004874;28;19944;-80
2022/07/10 12:09:55;;;;;;;;;;;;;;;16.45;59.96;102095.69;5004317;28;20000;-80
2022/07/10 12:12:22;;;;;;;;;;;;;;;16.48;60.81;102090.38;5005762;28;19972;-80
2022/07/10 12:14:47;;;;;;;;;;;;;;;16.56;60.62;102092.78;5002387;28;19951;-80
2022/07/10 12:17:13;;;;;;;;;;;;;;;16.57;61.21;102097.13;5000589;28;19925;-81
2022/07/10 12:19:38;;;;;;;;;;;;;;;16.61;60.81;102093.56;5005510;28;20012;-78
2022/07/10 12:22:05;;;;;;;;;;;;;;;16.45;61.19;102101.78;5004507;28;19932;-78
2022/07/10 12:24:30;;;;;;;;;;;;;;;16.41;61.33;102100.13;5003875;28;19922;-78
2022/07/10 12:26:56;;;;;;;;;;;;;;;16.44;62.37;102099.19;5006553;28;20486;-77
2022/07/10 12:29:22;;;;;;;;;;;;;;;16.39;62.63;102087.97;5010881;28;19917;-77
2022/07/10 12:31:49;;;;;;;;;;;;;;;16.49;63.08;102081.59;5010073;28;19921;-78
2022/07/10 12:34:15;;;;;;;;;;;;;;;16.52;63.46;102087.59;5009304;28;20443;-78
2022/07/10 12:36:50;;;;;;;;;;;;;;;16.60;62.96;102083.94;5012593;28;19921;-78
2022/07/10 12:39:23;;;;;;;;;;;;;;;16.60;63.21;102084.81;5007392;28;19926;-78
2022/07/10 12:41:55;;;;;;;;;;;;;;;16.62;63.36;102093.50;5002636;28;20381;-78
2022/07/10 12:44:49;;;;;;;;;;;;;;;16.61;63.49;102081.28;5003027;28;19925;-77